createdAt,value
2022-12-20T00:01:49.346Z,5.40
2022-12-20T00:04:17.167Z,3.87
2022-12-20T00:06:44.757Z,6.10
2022-12-20T00:09:13.070Z,4.67
2022-12-20T00:11:42.512Z,5.03
2022-12-20T00:14:11.468Z,4.33
2022-12-20T00:16:39.734Z,4.23
2022-12-20T00:19:10.753Z,4.70
2022-12-20T00:21:41.428Z,5.40
2022-12-20T00:24:11.061Z,5.80
2022-12-20T00:26:39.264Z,5.20
2022-12-20T00:29:09.882Z,4.30
2022-12-20T00:31:37.889Z,4.67
2022-12-20T00:34:05.906Z,6.10
2022-12-20T00:36:36.789Z,7.83
2022-12-20T00:39:05.924Z,4.97
2022-12-20T00:41:37.999Z,5.23
2022-12-20T00:44:06.830Z,4.93
2022-12-20T00:46:37.642Z,5.20
2022-12-20T00:49:05.309Z,4.87
2022-12-20T00:51:37.086Z,5.80
2022-12-20T00:54:05.710Z,6.00
2022-12-20T00:56:33.264Z,4.67
2022-12-20T00:59:00.933Z,4.57
2022-12-20T01:01:34.551Z,4.07
2022-12-20T01:04:03.682Z,5.77
2022-12-20T01:06:33.020Z,5.40
2022-12-20T01:09:01.785Z,5.30
2022-12-20T01:11:36.476Z,5.00
2022-12-20T01:14:17.217Z,4.63
2022-12-20T01:16:48.080Z,4.93
2022-12-20T01:19:18.788Z,4.00
2022-12-20T01:21:47.328Z,5.97
2022-12-20T01:24:20.284Z,3.00
2022-12-20T01:26:48.792Z,4.60
2022-12-20T01:29:17.494Z,4.17
2022-12-20T01:31:53.022Z,4.50
2022-12-20T01:34:23.563Z,4.77
2022-12-20T01:36:51.519Z,5.73
2022-12-20T01:39:19.335Z,4.67
2022-12-20T01:41:48.259Z,4.53
2022-12-20T01:44:18.976Z,4.97
2022-12-20T01:46:54.359Z,3.43
2022-12-20T01:49:37.845Z,8.43
2022-12-20T01:52:44.081Z,5.80
2022-12-20T01:55:28.744Z,4.00
2022-12-20T01:58:08.897Z,4.63
2022-12-20T02:00:37.456Z,4.97
2022-12-20T02:03:12.683Z,3.27
2022-12-20T02:05:47.102Z,3.50
2022-12-20T02:08:26.080Z,7.50
2022-12-20T02:11:29.484Z,5.10
2022-12-20T02:14:15.403Z,4.60
2022-12-20T02:17:57.555Z,4.90
2022-12-20T02:21:34.634Z,8.63
2022-12-20T02:24:34.523Z,6.07
2022-12-20T02:27:44.046Z,5.60
2022-12-20T02:30:34.380Z,6.30
2022-12-20T02:33:12.984Z,9.30
2022-12-20T02:35:42.829Z,5.20
2022-12-20T02:38:32.873Z,5.07
2022-12-20T02:41:40.858Z,7.43
2022-12-20T02:44:38.018Z,4.83
2022-12-20T02:47:17.505Z,3.77
2022-12-20T02:49:51.290Z,7.60
2022-12-20T02:52:26.697Z,4.93
2022-12-20T02:54:56.267Z,6.10
2022-12-20T02:58:03.034Z,7.90
2022-12-20T03:00:44.798Z,5.00
2022-12-20T03:03:23.082Z,5.93
2022-12-20T03:05:57.145Z,5.63
2022-12-20T03:08:26.570Z,6.17
2022-12-20T03:10:56.466Z,4.40
2022-12-20T03:13:26.607Z,5.33
2022-12-20T03:16:02.369Z,5.10
2022-12-20T03:18:30.139Z,3.80
2022-12-20T03:20:57.911Z,5.87
2022-12-20T03:23:25.953Z,8.33
2022-12-20T03:25:54.286Z,5.47
2022-12-20T03:28:44.858Z,7.00
2022-12-20T03:31:17.302Z,7.97
2022-12-20T03:33:51.838Z,6.37
2022-12-20T03:36:23.662Z,5.83
2022-12-20T03:38:56.592Z,6.37
2022-12-20T03:41:26.911Z,6.33
2022-12-20T03:43:54.980Z,6.00
2022-12-20T03:46:28.117Z,6.03
2022-12-20T03:48:56.210Z,9.83
2022-12-20T03:51:24.509Z,7.10
2022-12-20T03:53:52.466Z,6.90
2022-12-20T03:56:22.344Z,6.13
2022-12-20T03:58:50.158Z,6.93
2022-12-20T04:01:27.598Z,7.97
2022-12-20T04:03:57.565Z,9.37
2022-12-20T04:06:25.240Z,5.70
2022-12-20T04:08:53.205Z,7.37
2022-12-20T04:11:27.749Z,6.50
2022-12-20T04:14:07.280Z,7.50
2022-12-20T04:16:35.610Z,7.23
2022-12-20T04:19:03.635Z,6.53
2022-12-20T04:21:37.224Z,6.83
2022-12-20T04:24:06.652Z,5.87
2022-12-20T04:26:55.106Z,7.70
2022-12-20T04:29:22.781Z,6.23
2022-12-20T04:31:51.286Z,5.57
2022-12-20T04:34:19.541Z,5.80
2022-12-20T04:36:47.821Z,7.30
2022-12-20T04:39:23.468Z,5.40
2022-12-20T04:42:13.743Z,6.03
2022-12-20T04:44:41.723Z,9.40
2022-12-20T04:47:11.089Z,8.00
2022-12-20T04:49:38.787Z,7.57
2022-12-20T04:52:25.217Z,7.43
2022-12-20T04:54:53.493Z,8.03
2022-12-20T04:57:26.398Z,5.83
2022-12-20T04:59:54.444Z,7.53
2022-12-20T05:02:22.743Z,5.47
2022-12-20T05:04:54.794Z,6.63
2022-12-20T05:07:22.423Z,5.37
2022-12-20T05:09:55.313Z,8.90
2022-12-20T05:12:22.962Z,7.70
2022-12-20T05:14:50.867Z,7.43
2022-12-20T05:17:22.023Z,5.60
2022-12-20T05:19:50.194Z,6.50
2022-12-20T05:22:36.281Z,14.63
2022-12-20T05:25:30.535Z,5.50
2022-12-20T05:28:02.896Z,5.53
2022-12-20T05:30:35.083Z,7.50
2022-12-20T05:33:03.143Z,7.67
2022-12-20T05:35:32.167Z,10.60
2022-12-20T05:38:07.827Z,8.90
2022-12-20T05:40:35.854Z,6.80
2022-12-20T05:43:03.756Z,7.20
2022-12-20T05:45:38.607Z,7.23
2022-12-20T05:48:13.969Z,14.57
2022-12-20T05:50:44.968Z,7.40
2022-12-20T05:53:32.203Z,7.63
2022-12-20T05:56:03.536Z,5.10
2022-12-20T05:58:35.105Z,6.60
2022-12-20T06:01:09.383Z,9.20
2022-12-20T06:03:41.075Z,5.07
2022-12-20T06:06:15.605Z,7.73
2022-12-20T06:08:46.827Z,8.80
2022-12-20T06:11:25.786Z,5.40
2022-12-20T06:14:02.099Z,8.17
2022-12-20T06:16:31.548Z,7.47
2022-12-20T06:19:00.749Z,5.57
2022-12-20T06:21:30.628Z,8.87
2022-12-20T06:24:16.247Z,7.63
2022-12-20T06:26:46.780Z,7.30
2022-12-20T06:29:17.515Z,4.90
2022-12-20T06:31:51.460Z,6.97
2022-12-20T06:34:20.737Z,5.63
2022-12-20T06:36:48.618Z,4.83
2022-12-20T06:39:21.018Z,5.33
2022-12-20T06:41:56.777Z,6.47
2022-12-20T06:44:25.563Z,5.60
2022-12-20T06:46:53.255Z,6.73
2022-12-20T06:49:22.568Z,6.77
2022-12-20T06:51:50.948Z,5.07
2022-12-20T06:54:23.113Z,8.07
2022-12-20T06:56:51.699Z,4.70
2022-12-20T06:59:20.074Z,6.13
2022-12-20T07:01:47.876Z,5.50
2022-12-20T07:04:15.737Z,6.47
2022-12-20T07:06:43.382Z,6.10
2022-12-20T07:09:10.877Z,5.77
2022-12-20T07:11:39.109Z,5.20
2022-12-20T07:14:06.738Z,6.13
2022-12-20T07:16:34.558Z,6.07
2022-12-20T07:19:02.821Z,7.80
2022-12-20T07:21:30.446Z,5.13
2022-12-20T07:23:58.441Z,5.00
2022-12-20T07:26:26.040Z,5.27
2022-12-20T07:28:53.732Z,7.70
2022-12-20T07:31:21.498Z,5.17
2022-12-20T07:33:49.251Z,4.67
2022-12-20T07:36:17.180Z,4.60
2022-12-20T07:38:44.811Z,6.43
2022-12-20T07:41:20.525Z,5.10
2022-12-20T07:43:48.459Z,6.30
2022-12-20T07:46:17.819Z,9.00
2022-12-20T07:48:45.907Z,7.10
2022-12-20T07:51:28.202Z,6.83
2022-12-20T07:54:29.053Z,10.13
2022-12-20T07:57:12.540Z,4.57
2022-12-20T07:59:49.294Z,8.10
2022-12-20T08:02:38.644Z,5.43
2022-12-20T08:05:11.025Z,7.47
2022-12-20T08:07:44.435Z,5.20
2022-12-20T08:10:17.539Z,5.07
2022-12-20T08:12:48.625Z,5.57
2022-12-20T08:15:17.384Z,5.97
2022-12-20T08:17:45.495Z,8.50
2022-12-20T08:20:13.897Z,9.87
2022-12-20T08:22:41.555Z,8.27
2022-12-20T08:25:09.999Z,7.13
2022-12-20T08:27:37.835Z,5.90
2022-12-20T08:30:08.920Z,4.97
2022-12-20T08:32:37.616Z,4.70
2022-12-20T08:35:07.125Z,5.20
2022-12-20T08:37:35.132Z,5.40
2022-12-20T08:40:02.802Z,4.27
2022-12-20T08:42:30.499Z,6.80
2022-12-20T08:44:58.202Z,4.63
2022-12-20T08:47:26.011Z,4.30
2022-12-20T08:49:53.659Z,4.10
2022-12-20T08:52:21.785Z,4.37
2022-12-20T08:54:49.400Z,4.50
2022-12-20T08:57:17.580Z,4.53
2022-12-20T08:59:45.634Z,5.40
2022-12-20T09:02:13.997Z,4.20
2022-12-20T09:04:50.311Z,3.80
2022-12-20T09:07:21.681Z,4.70
2022-12-20T09:09:49.248Z,7.80
2022-12-20T09:12:16.790Z,5.00
2022-12-20T09:14:45.256Z,5.87
2022-12-20T09:17:12.867Z,5.73
2022-12-20T09:19:40.728Z,6.57
2022-12-20T09:22:16.506Z,6.57
2022-12-20T09:25:03.726Z,4.27
2022-12-20T09:27:34.921Z,4.03
2022-12-20T09:30:02.546Z,8.90
2022-12-20T09:32:30.094Z,4.90
2022-12-20T09:34:57.701Z,7.40
2022-12-20T09:37:25.337Z,5.63
2022-12-20T09:39:52.909Z,10.03
2022-12-20T09:42:29.362Z,6.00
2022-12-20T09:45:09.934Z,4.50
2022-12-20T09:47:39.409Z,6.70
2022-12-20T09:50:14.684Z,6.20
2022-12-20T09:53:41.711Z,5.83
2022-12-20T09:56:51.871Z,5.17
2022-12-20T09:59:21.361Z,6.77
2022-12-20T10:02:26.842Z,3.77
2022-12-20T10:04:57.272Z,5.20
2022-12-20T10:08:23.848Z,4.77
2022-12-20T10:11:40.764Z,5.67
2022-12-20T10:14:27.464Z,4.77
2022-12-20T10:17:42.496Z,5.10
2022-12-20T10:20:53.765Z,4.50
2022-12-20T10:23:43.208Z,8.20
2022-12-20T10:26:14.248Z,4.43
2022-12-20T10:28:42.183Z,6.93
2022-12-20T10:31:18.366Z,7.00
2022-12-20T10:33:47.063Z,5.70
2022-12-20T10:36:37.098Z,7.60
2022-12-20T10:39:10.141Z,5.93
2022-12-20T10:41:40.795Z,4.50
2022-12-20T10:44:29.924Z,5.07
2022-12-20T10:47:01.900Z,3.77
2022-12-20T10:49:40.988Z,8.40
2022-12-20T10:52:08.632Z,4.57
2022-12-20T10:54:43.967Z,4.40
2022-12-20T10:57:24.590Z,7.67
2022-12-20T11:00:06.076Z,3.70
2022-12-20T11:02:42.994Z,4.70
2022-12-20T11:05:11.536Z,6.87
2022-12-20T11:08:36.011Z,7.30
2022-12-20T11:11:22.140Z,6.20
2022-12-20T11:13:52.830Z,6.90
2022-12-20T11:16:40.069Z,5.07
2022-12-20T11:19:43.736Z,5.77
2022-12-20T11:23:45.533Z,4.57
2022-12-20T11:27:39.666Z,5.00
2022-12-20T11:30:24.526Z,5.07
2022-12-20T11:34:10.762Z,6.43
2022-12-20T11:37:27.258Z,5.33
2022-12-20T11:40:44.233Z,8.70
2022-12-20T11:44:29.051Z,4.07
2022-12-20T11:47:45.613Z,4.93
2022-12-20T11:50:49.353Z,5.73
2022-12-20T11:53:58.091Z,4.20
2022-12-20T11:56:44.520Z,5.27
2022-12-20T11:59:52.395Z,7.90
2022-12-20T12:02:51.610Z,6.90
2022-12-20T12:05:49.208Z,5.53
2022-12-20T12:08:41.182Z,5.33
2022-12-20T12:15:16.887Z,6.03
2022-12-20T12:18:10.267Z,5.27
2022-12-20T12:21:06.616Z,7.73
2022-12-20T12:23:45.229Z,5.30
2022-12-20T12:26:34.811Z,6.97
2022-12-20T12:29:19.461Z,8.43
2022-12-20T12:32:33.444Z,5.07
2022-12-20T12:35:46.366Z,7.13
2022-12-20T12:39:15.367Z,7.13
2022-12-20T12:42:57.485Z,8.03
2022-12-20T12:45:48.882Z,5.00
2022-12-20T12:48:33.503Z,6.40
2022-12-20T12:51:03.857Z,12.33
2022-12-20T12:53:50.360Z,5.67
2022-12-20T12:56:46.734Z,4.07
2022-12-20T12:59:45.548Z,7.40
2022-12-20T13:02:16.749Z,7.00
2022-12-20T13:05:26.033Z,4.80
2022-12-20T13:07:55.066Z,5.30
2022-12-20T13:10:25.655Z,6.67
2022-12-20T13:12:57.556Z,4.70
2022-12-20T13:15:25.136Z,4.50
2022-12-20T13:18:17.391Z,5.20
2022-12-20T13:21:32.659Z,4.60
2022-12-20T13:24:50.818Z,5.03
2022-12-20T13:27:33.901Z,5.03
2022-12-20T13:30:14.848Z,10.27
2022-12-20T13:32:48.518Z,8.13
2022-12-20T13:35:25.234Z,5.73
2022-12-20T13:37:57.179Z,5.80
2022-12-20T13:40:47.159Z,5.70
2022-12-20T13:43:46.968Z,5.70
2022-12-20T13:46:42.564Z,4.80
2022-12-20T13:49:32.304Z,7.07
2022-12-20T13:52:12.122Z,6.10
2022-12-20T13:54:52.497Z,7.20
2022-12-20T13:57:46.149Z,6.43
2022-12-20T14:00:26.819Z,8.03
2022-12-20T14:02:56.012Z,5.97
2022-12-20T14:05:34.720Z,5.93
2022-12-20T14:08:37.516Z,8.33
2022-12-20T14:11:19.247Z,7.30
2022-12-20T14:14:02.823Z,10.93
2022-12-20T14:16:33.810Z,8.13
2022-12-20T14:19:15.680Z,6.10
2022-12-20T14:21:46.915Z,8.90
2022-12-20T14:24:22.694Z,6.90
2022-12-20T14:26:54.237Z,9.70
2022-12-20T14:29:32.496Z,9.13
2022-12-20T14:32:00.176Z,10.60
2022-12-20T14:34:41.330Z,12.10
2022-12-20T14:37:39.230Z,10.63
2022-12-20T14:40:09.790Z,14.53
2022-12-20T14:42:41.150Z,11.30
2022-12-20T14:45:14.447Z,14.67
2022-12-20T14:48:15.791Z,9.63
2022-12-20T14:50:54.213Z,10.13
2022-12-20T14:53:30.236Z,8.23
2022-12-20T14:55:58.276Z,12.97
2022-12-20T14:58:34.659Z,8.00
2022-12-20T15:01:24.949Z,10.10
2022-12-20T15:04:00.401Z,15.50
2022-12-20T15:06:48.216Z,13.50
2022-12-20T15:09:17.133Z,12.40
2022-12-20T15:11:46.982Z,14.27
2022-12-20T15:14:38.944Z,9.30
2022-12-20T15:17:15.953Z,10.97
2022-12-20T15:19:44.585Z,11.73
2022-12-20T15:22:20.497Z,10.03
2022-12-20T15:24:48.283Z,10.23
2022-12-20T15:27:16.642Z,10.50
2022-12-20T15:29:44.309Z,12.03
2022-12-20T15:32:32.781Z,12.97
2022-12-20T15:35:00.586Z,8.27
2022-12-20T15:37:28.237Z,7.70
2022-12-20T15:39:55.729Z,11.03
2022-12-20T15:42:25.152Z,11.37
2022-12-20T15:44:52.892Z,14.20
2022-12-20T15:47:20.481Z,9.20
2022-12-20T15:49:50.625Z,12.60
2022-12-20T15:52:24.748Z,10.57
2022-12-20T15:54:53.357Z,11.43
2022-12-20T15:57:22.103Z,11.43
2022-12-20T16:00:01.579Z,10.93
2022-12-20T16:02:39.431Z,16.03
2022-12-20T16:05:25.406Z,12.83
2022-12-20T16:07:56.786Z,12.47
2022-12-20T16:10:24.467Z,14.00
2022-12-20T16:12:52.004Z,9.70
2022-12-20T16:15:24.092Z,14.00
2022-12-20T16:17:52.020Z,11.03
2022-12-20T16:20:20.402Z,13.90
2022-12-20T16:22:56.292Z,9.90
2022-12-20T16:25:36.983Z,9.77
2022-12-20T16:28:05.267Z,11.00
2022-12-20T16:30:33.206Z,12.70
2022-12-20T16:33:00.911Z,8.20
2022-12-20T16:35:39.675Z,11.50
2022-12-20T16:38:07.291Z,10.63
2022-12-20T16:40:34.857Z,9.67
2022-12-20T16:43:02.604Z,13.57
2022-12-20T16:45:33.025Z,12.20
2022-12-20T16:48:01.920Z,8.90
2022-12-20T16:50:29.562Z,12.23
2022-12-20T16:52:57.296Z,14.40
2022-12-20T16:55:28.075Z,14.97
2022-12-20T16:57:56.358Z,11.00
2022-12-20T17:00:29.766Z,13.87
2022-12-20T17:02:59.352Z,11.10
2022-12-20T17:05:39.618Z,9.80
2022-12-20T17:10:52.955Z,12.83
2022-12-20T17:13:20.552Z,10.23
2022-12-20T17:15:49.113Z,11.10
2022-12-20T17:18:16.678Z,13.47
2022-12-20T17:20:44.185Z,12.90
2022-12-20T17:23:15.995Z,10.47
2022-12-20T17:25:47.369Z,9.30
2022-12-20T17:28:18.493Z,11.23
2022-12-20T17:30:46.039Z,10.93
2022-12-20T17:33:16.456Z,10.30
2022-12-20T17:35:44.065Z,14.90
2022-12-20T17:38:11.618Z,9.77
2022-12-20T17:40:39.140Z,13.30
2022-12-20T17:43:11.320Z,11.00
2022-12-20T17:45:39.022Z,7.90
2022-12-20T17:48:07.043Z,9.80
2022-12-20T17:50:34.656Z,8.13
2022-12-20T17:53:02.878Z,12.03
2022-12-20T17:55:30.752Z,11.03
2022-12-20T17:57:58.462Z,10.47
2022-12-20T18:00:39.061Z,10.50
2022-12-20T18:03:07.808Z,12.53
2022-12-20T18:05:35.556Z,16.40
2022-12-20T18:08:03.203Z,12.30
2022-12-20T18:10:31.009Z,17.13
2022-12-20T18:12:58.601Z,14.63
2022-12-20T18:15:26.189Z,12.10
2022-12-20T18:17:53.812Z,15.67
2022-12-20T18:20:21.359Z,12.63
2022-12-20T18:22:49.001Z,18.73
2022-12-20T18:25:18.319Z,14.93
2022-12-20T18:27:46.301Z,19.57
2022-12-20T18:30:14.805Z,12.37
2022-12-20T18:32:42.418Z,15.93
2022-12-20T18:35:11.114Z,11.60
2022-12-20T18:37:38.700Z,9.70
2022-12-20T18:40:08.258Z,9.67
2022-12-20T18:42:36.792Z,9.20
2022-12-20T18:45:05.149Z,12.93
2022-12-20T18:47:33.996Z,11.10
2022-12-20T18:50:02.569Z,10.93
2022-12-20T18:58:14.955Z,11.17
2022-12-20T19:00:58.205Z,9.60
2022-12-20T19:03:28.444Z,9.90
2022-12-20T19:06:00.177Z,11.20
2022-12-20T19:08:30.382Z,13.33
2022-12-20T19:11:08.758Z,12.87
2022-12-20T19:13:39.999Z,11.97
2022-12-20T19:16:16.825Z,20.50
2022-12-20T19:18:47.249Z,15.53
2022-12-20T19:21:24.352Z,14.33
2022-12-20T19:23:58.576Z,12.97
2022-12-20T19:26:30.030Z,12.20
2022-12-20T19:28:59.254Z,16.43
2022-12-20T19:31:33.618Z,13.50
2022-12-20T19:34:11.022Z,16.00
2022-12-20T19:36:46.774Z,17.53
2022-12-20T19:39:25.622Z,15.70
2022-12-20T19:42:22.883Z,11.17
2022-12-20T19:44:41.659Z,13.83
2022-12-20T19:47:09.542Z,12.33
2022-12-20T19:49:37.161Z,14.37
2022-12-20T19:52:07.828Z,15.50
2022-12-20T19:54:35.940Z,11.03
2022-12-20T19:57:18.888Z,15.67
2022-12-20T19:59:58.663Z,11.57
2022-12-20T20:02:29.817Z,15.43
2022-12-20T20:04:57.821Z,15.20
2022-12-20T20:07:25.367Z,16.30
2022-12-20T20:09:52.975Z,13.53
2022-12-20T20:12:20.575Z,17.10
2022-12-20T20:14:48.282Z,14.73
2022-12-20T20:17:16.446Z,15.50
2022-12-20T20:19:46.887Z,17.53
2022-12-20T20:22:19.275Z,14.07
2022-12-20T20:24:50.882Z,13.03
2022-12-20T20:27:18.366Z,19.03
2022-12-20T20:29:49.329Z,15.63
2022-12-20T20:32:16.990Z,19.70
2022-12-20T20:34:44.663Z,18.77
2022-12-20T20:37:12.383Z,18.10
2022-12-20T20:39:39.955Z,18.43
2022-12-20T20:42:07.734Z,18.23
2022-12-20T20:44:35.288Z,17.90
2022-12-20T20:47:03.015Z,18.40
2022-12-20T20:49:30.601Z,20.33
2022-12-20T20:51:58.298Z,24.90
2022-12-20T20:54:25.887Z,16.13
2022-12-20T20:56:53.548Z,15.47
2022-12-20T20:59:22.849Z,24.40
2022-12-20T21:01:52.609Z,23.33
2022-12-20T21:04:20.660Z,17.93
2022-12-20T21:06:50.519Z,20.53
2022-12-20T21:09:20.369Z,22.47
2022-12-20T21:11:48.072Z,26.00
2022-12-20T21:14:16.446Z,21.87
2022-12-20T21:16:44.633Z,26.90
2022-12-20T21:19:12.463Z,21.27
2022-12-20T21:21:40.453Z,24.00
2022-12-20T21:24:08.856Z,28.47
2022-12-20T21:26:36.512Z,25.30
2022-12-20T21:29:04.562Z,24.90
2022-12-20T21:31:32.157Z,22.93
2022-12-20T21:33:59.834Z,22.97
2022-12-20T21:36:27.458Z,20.87
2022-12-20T21:38:58.550Z,22.17
2022-12-20T21:41:29.375Z,26.57
2022-12-20T21:44:00.600Z,25.80
2022-12-20T21:46:32.101Z,22.30
2022-12-20T21:49:00.184Z,27.00
2022-12-20T21:51:30.716Z,28.13
2022-12-20T21:54:03.070Z,28.50
2022-12-20T21:56:35.705Z,24.77
2022-12-20T21:59:05.303Z,23.07
2022-12-20T22:01:33.971Z,29.73
2022-12-20T22:04:06.878Z,24.57
2022-12-20T22:06:35.784Z,22.77
2022-12-20T22:09:07.508Z,26.07
2022-12-20T22:11:36.962Z,26.77
2022-12-20T22:14:05.899Z,22.87
2022-12-20T22:16:35.068Z,23.27
2022-12-20T22:19:03.793Z,27.77
2022-12-20T22:21:34.057Z,23.70
2022-12-20T22:24:03.259Z,35.27
2022-12-20T22:26:33.606Z,27.53
2022-12-20T22:29:06.043Z,29.33
2022-12-20T22:31:36.159Z,28.07
2022-12-20T22:34:05.042Z,25.60
2022-12-20T22:36:32.766Z,27.03
2022-12-20T22:39:00.694Z,26.47
2022-12-20T22:41:34.961Z,26.53
2022-12-20T22:44:04.478Z,25.10
2022-12-20T22:46:33.478Z,27.83
2022-12-20T22:49:01.762Z,26.70
2022-12-20T22:51:33.393Z,21.73
2022-12-20T22:54:02.870Z,22.63
2022-12-20T22:56:30.849Z,29.83
2022-12-20T22:58:58.522Z,27.43
2022-12-20T23:01:26.945Z,31.00
2022-12-20T23:03:54.897Z,30.40
2022-12-20T23:06:23.067Z,30.27
2022-12-20T23:08:50.758Z,31.47
2022-12-20T23:11:47.200Z,27.60
2022-12-20T23:14:39.691Z,31.97
2022-12-20T23:17:10.278Z,28.43
2022-12-20T23:20:16.913Z,36.43
2022-12-20T23:22:45.201Z,35.50
2022-12-20T23:25:19.622Z,29.50
2022-12-20T23:27:50.410Z,36.40
2022-12-20T23:30:23.751Z,34.47
2022-12-20T23:32:51.941Z,38.77
2022-12-20T23:35:21.500Z,32.13
2022-12-20T23:37:49.501Z,32.57
2022-12-20T23:40:18.643Z,28.47
2022-12-20T23:42:46.391Z,37.73
2022-12-20T23:45:14.257Z,40.27
2022-12-20T23:47:42.369Z,36.50
2022-12-20T23:50:10.953Z,39.83
2022-12-20T23:52:38.694Z,43.03
2022-12-20T23:55:07.164Z,38.67
2022-12-20T23:57:34.790Z,37.43
